Time;durP1;ratioP1;P1;durP2;ratioP2;P2;SDS_P1;SDS_P2;PMS_P1;PMS_P2;Temp;Humidity;BMP_temperature;BMP_pressure;BME280_temperature;BME280_humidity;BME280_pressure;Samples;Min_cycle;Max_cycle;Signal;HPM_P1;HPM_P2
2022/06/09 00:01:55;;;;;;;13.02;6.60;;;;;;;16.97;78.08;93378.56;5104317;28;20044;-75
2022/06/09 00:04:35;;;;;;;9.02;5.80;;;;;;;16.90;78.73;93375.78;5104074;28;20016;-75
2022/06/09 00:07:05;;;;;;;14.30;5.90;;;;;;;16.86;78.58;93374.19;5103984;28;20015;-75
2022/06/09 00:09:39;;;;;;;13.05;6.35;;;;;;;16.76;78.24;93375.56;5103814;28;20047;-75
2022/06/09 00:12:05;;;;;;;14.45;6.80;;;;;;;16.70;78.61;93377.03;5103868;28;20091;-75
2022/06/09 00:14:31;;;;;;;17.33;6.75;;;;;;;16.69;79.60;93370.88;5103913;28;20032;-74
2022/06/09 00:16:56;;;;;;;17.42;6.97;;;;;;;16.68;79.25;93377.38;5103853;28;20016;-74
2022/06/09 00:19:22;;;;;;;10.05;6.10;;;;;;;16.65;78.32;93372.72;5103835;28;20020;-75
2022/06/09 00:21:47;;;;;;;12.15;5.97;;;;;;;16.56;78.32;93367.59;5103878;28;20391;-75
2022/06/09 00:24:13;;;;;;;12.05;6.00;;;;;;;16.49;79.29;93378.25;5103720;28;20016;-75
2022/06/09 00:26:39;;;;;;;11.30;6.35;;;;;;;16.50;79.70;93369.03;5103646;28;20394;-75
2022/06/09 00:29:05;;;;;;;13.38;6.68;;;;;;;16.50;80.00;93371.72;5085229;28;20020;-75
2022/06/09 00:31:31;;;;;;;25.20;8.27;;;;;;;16.53;79.92;93367.56;5103517;28;20019;-75
2022/06/09 00:33:56;;;;;;;15.48;6.10;;;;;;;16.51;79.75;93359.06;5103498;28;20015;-75
2022/06/09 00:36:22;;;;;;;10.60;5.90;;;;;;;16.52;79.89;93361.38;5103372;28;20026;-74
2022/06/09 00:38:47;;;;;;;9.40;6.05;;;;;;;16.54;80.30;93364.50;5103529;28;20024;-74
2022/06/09 00:41:13;;;;;;;18.38;6.35;;;;;;;16.54;80.14;93356.41;5103396;28;20058;-75
2022/06/09 00:43:41;;;;;;;11.02;6.82;;;;;;;16.54;79.51;93361.03;5102404;28;20035;-75
2022/06/09 00:46:13;;;;;;;11.07;6.50;;;;;;;16.55;79.31;93357.97;5103434;28;20187;-75
2022/06/09 00:48:51;;;;;;;12.13;6.28;;;;;;;16.54;79.40;93353.72;5103044;28;20031;-76
2022/06/09 00:51:41;;;;;;;13.10;6.15;;;;;;;16.49;79.11;93350.59;5103400;28;20023;-75
2022/06/09 00:54:12;;;;;;;8.98;5.70;;;;;;;16.44;79.09;93359.72;5103251;28;20015;-75
2022/06/09 00:56:43;;;;;;;15.30;6.20;;;;;;;16.44;80.32;93346.28;5103150;28;20068;-76
2022/06/09 00:59:15;;;;;;;12.43;6.97;;;;;;;16.45;80.81;93350.53;5103077;28;20012;-76
2022/06/09 01:01:41;;;;;;;11.38;6.88;;;;;;;16.49;80.00;93343.28;5102950;28;20190;-75
2022/06/09 01:04:09;;;;;;;14.93;7.07;;;;;;;16.51;79.48;93349.09;5103090;28;20230;-75
2022/06/09 01:07:06;;;;;;;9.95;6.82;;;;;;;16.52;79.99;93352.53;5103067;28;20016;-75
2022/06/09 01:09:32;;;;;;;9.85;6.57;;;;;;;16.52;80.71;93347.94;5099783;28;20373;-75
2022/06/09 01:11:58;;;;;;;9.50;6.80;;;;;;;16.55;80.69;93344.53;5102866;28;20073;-75
2022/06/09 01:14:31;;;;;;;16.23;6.25;;;;;;;16.59;80.68;93350.75;5085035;28;20039;-75
2022/06/09 01:17:04;;;;;;;13.07;7.15;;;;;;;16.62;80.43;93354.63;5102819;28;20330;-75
2022/06/09 01:19:44;;;;;;;14.32;7.03;;;;;;;16.63;79.80;93351.56;5102489;28;20020;-75
2022/06/09 01:22:35;;;;;;;10.43;6.90;;;;;;;16.63;80.40;93348.09;5102214;28;20028;-75
2022/06/09 01:25:21;;;;;;;11.88;6.97;;;;;;;16.63;80.41;93345.41;5102919;28;20265;-75
2022/06/09 01:28:15;;;;;;;11.80;8.00;;;;;;;16.65;80.78;93351.97;5102733;28;20142;-75
2022/06/09 01:31:01;;;;;;;15.27;7.35;;;;;;;16.67;80.64;93340.84;5102730;28;20023;-75
2022/06/09 01:33:48;;;;;;;11.90;7.20;;;;;;;16.68;80.41;93338.94;5102746;28;20038;-75
2022/06/09 01:36:27;;;;;;;14.90;7.53;;;;;;;16.72;80.59;93335.16;5102737;28;20085;-75
2022/06/09 01:38:57;;;;;;;11.27;7.28;;;;;;;16.74;80.92;93332.09;5102703;28;20020;-74
2022/06/09 01:41:24;;;;;;;10.43;6.18;;;;;;;16.77;80.06;93334.03;5102665;28;20046;-75
2022/06/09 01:43:52;;;;;;;13.00;6.55;;;;;;;16.78;79.50;93330.22;5102748;28;20055;-75
2022/06/09 01:46:25;;;;;;;10.27;6.60;;;;;;;16.76;79.02;93319.81;5102791;28;20027;-75
2022/06/09 01:48:55;;;;;;;11.25;6.78;;;;;;;16.79;78.24;93326.38;5102758;28;20066;-76
2022/06/09 01:51:23;;;;;;;12.30;6.30;;;;;;;16.78;78.53;93327.53;5102626;28;20310;-75
2022/06/09 01:53:54;;;;;;;11.90;6.72;;;;;;;16.77;78.38;93331.34;5103220;28;20023;-75
2022/06/09 01:56:27;;;;;;;9.93;7.60;;;;;;;16.73;79.00;93341.28;5106875;28;20026;-75
2022/06/09 01:58:59;;;;;;;13.95;6.50;;;;;;;16.73;78.61;93338.59;5106514;28;20271;-75
2022/06/09 02:01:30;;;;;;;;;;;;;;;16.69;78.87;93337.78;5107017;28;20016;-75
2022/06/09 02:04:00;;;;;;;11.73;6.82;;;;;;;16.61;79.23;93342.31;5106322;28;19904;-75
2022/06/09 02:06:28;;;;;;;8.30;5.80;;;;;;;16.63;78.66;93340.03;5106252;28;20026;-75
2022/06/09 02:08:54;;;;;;;10.57;6.55;;;;;;;16.64;79.18;93334.28;5106426;28;20024;-75
2022/06/09 02:11:20;;;;;;;15.75;6.38;;;;;;;16.65;78.29;93330.44;5106591;28;20071;-75
2022/06/09 02:13:50;;;;;;;8.68;6.20;;;;;;;16.63;78.08;93338.13;5106187;28;20222;-75
2022/06/09 02:16:21;;;;;;;8.52;5.65;;;;;;;16.61;78.21;93332.31;5106151;28;20042;-75
2022/06/09 02:18:51;;;;;;;21.43;7.33;;;;;;;16.60;78.01;93333.44;5106238;28;20092;-75
2022/06/09 02:21:27;;;;;;;11.30;6.72;;;;;;;16.60;77.65;93330.75;5106257;28;20261;-75
2022/06/09 02:23:53;;;;;;;13.27;7.63;;;;;;;16.58;77.02;93335.72;5105981;28;20024;-75
2022/06/09 02:26:19;;;;;;;16.25;7.72;;;;;;;16.54;77.77;93336.81;5106082;28;20030;-75
2022/06/09 02:28:45;;;;;;;13.20;7.75;;;;;;;16.51;78.89;93338.31;5105751;28;20024;-75
2022/06/09 02:31:11;;;;;;;11.98;6.57;;;;;;;16.50;78.67;93346.75;5105861;28;20070;-75
2022/06/09 02:33:36;;;;;;;12.85;7.35;;;;;;;16.44;78.44;93348.97;5105835;28;20215;-75
2022/06/09 02:36:02;;;;;;;11.15;6.93;;;;;;;16.44;78.96;93349.78;5104680;28;20036;-76
2022/06/09 02:38:28;;;;;;;16.33;7.57;;;;;;;16.38;79.21;93355.78;5105569;28;20020;-76
2022/06/09 02:40:57;;;;;;;10.52;7.15;;;;;;;16.38;79.79;93359.25;5105635;28;20314;-75
2022/06/09 02:43:23;;;;;;;16.17;6.18;;;;;;;16.39;79.50;93363.50;5105668;28;20368;-76
2022/06/09 02:45:50;;;;;;;15.43;6.85;;;;;;;16.40;78.87;93361.59;5105694;28;20389;-76
2022/06/09 02:48:16;;;;;;;17.15;8.07;;;;;;;16.38;78.70;93356.56;5105476;28;20055;-76
2022/06/09 02:50:42;;;;;;;13.65;7.75;;;;;;;16.38;79.01;93350.41;5105567;28;20038;-76
2022/06/09 02:53:08;;;;;;;13.10;9.35;;;;;;;16.38;79.06;93350.41;5105343;28;20048;-75
2022/06/09 02:55:34;;;;;;;18.50;8.02;;;;;;;16.37;79.89;93355.03;5105423;28;20024;-76
2022/06/09 02:58:01;;;;;;;12.25;8.68;;;;;;;16.35;79.74;93351.94;5105490;28;20024;-75
2022/06/09 03:00:26;;;;;;;15.75;7.78;;;;;;;16.31;79.82;93347.63;5105063;28;20214;-75
2022/06/09 03:03:00;;;;;;;14.70;8.70;;;;;;;16.30;80.28;93346.84;5105326;28;20042;-75
2022/06/09 03:05:28;;;;;;;11.98;8.10;;;;;;;16.28;80.44;93351.03;5104717;28;20028;-75
2022/06/09 03:07:53;;;;;;;22.38;8.13;;;;;;;16.21;80.83;93351.72;5105075;28;20366;-75
2022/06/09 03:10:19;;;;;;;16.55;10.00;;;;;;;16.18;80.77;93358.59;5105317;28;20031;-75
2022/06/09 03:12:45;;;;;;;13.80;8.32;;;;;;;16.19;80.65;93357.44;5104886;28;20020;-75
2022/06/09 03:15:12;;;;;;;17.27;9.48;;;;;;;16.19;80.83;93354.75;5105041;28;20044;-75
2022/06/09 03:17:38;;;;;;;19.90;11.68;;;;;;;16.18;80.47;93357.78;5105020;28;20028;-75
2022/06/09 03:20:05;;;;;;;19.15;9.30;;;;;;;16.24;80.76;93356.34;5104984;28;20120;-75
2022/06/09 03:22:32;;;;;;;14.60;9.18;;;;;;;16.31;81.06;93358.41;5104879;28;20026;-75
2022/06/09 03:24:58;;;;;;;12.38;8.32;;;;;;;16.37;81.08;93355.03;5104816;28;20199;-75
2022/06/09 03:27:23;;;;;;;14.20;9.18;;;;;;;16.43;81.16;93358.19;5104931;28;20034;-75
2022/06/09 03:29:49;;;;;;;20.00;8.00;;;;;;;16.52;80.54;93347.94;5104943;28;20208;-75
2022/06/09 03:32:14;;;;;;;15.45;10.02;;;;;;;16.57;80.33;93352.25;5104742;28;20035;-75
2022/06/09 03:34:40;;;;;;;15.52;9.48;;;;;;;16.63;80.23;93354.25;5104353;28;20364;-75
2022/06/09 03:37:05;;;;;;;14.68;8.95;;;;;;;16.67;79.88;93357.00;5104691;28;20020;-76
2022/06/09 03:39:31;;;;;;;20.73;8.93;;;;;;;16.72;79.71;93353.97;5104653;28;20087;-76
2022/06/09 03:41:56;;;;;;;13.40;9.10;;;;;;;16.80;79.68;93354.88;5104503;28;20314;-76
2022/06/09 03:44:21;;;;;;;15.10;8.02;;;;;;;16.87;78.41;93354.97;5104525;28;20032;-76
2022/06/09 03:46:47;;;;;;;17.63;8.20;;;;;;;16.91;77.80;93349.63;5104466;28;20091;-76
2022/06/09 03:49:12;;;;;;;15.00;8.50;;;;;;;16.95;77.41;93353.91;5086112;28;20016;-75
2022/06/09 03:51:38;;;;;;;16.85;8.77;;;;;;;17.00;77.31;93356.31;5104438;28;20023;-76
2022/06/09 03:54:03;;;;;;;13.68;8.95;;;;;;;17.08;77.53;93351.03;5104218;28;20028;-76
2022/06/09 03:56:29;;;;;;;12.60;8.63;;;;;;;17.12;76.36;93343.75;5104173;28;20024;-76
2022/06/09 03:58:55;;;;;;;14.27;7.97;;;;;;;17.18;76.17;93353.06;5104323;28;20019;-76
2022/06/09 04:01:20;;;;;;;14.05;9.18;;;;;;;17.25;76.18;93345.81;5104392;28;20019;-75
2022/06/09 04:03:47;;;;;;;16.38;8.55;;;;;;;17.35;76.19;93340.94;5103952;28;20016;-75
2022/06/09 04:06:22;;;;;;;14.18;9.20;;;;;;;17.40;74.73;93352.16;5103991;28;20038;-75
2022/06/09 04:08:48;;;;;;;16.10;10.18;;;;;;;17.39;74.08;93344.44;5103864;28;20047;-74
2022/06/09 04:11:15;;;;;;;18.63;9.63;;;;;;;17.32;74.30;93339.78;5103946;28;20305;-74
2022/06/09 04:13:41;;;;;;;15.27;8.82;;;;;;;17.27;75.38;93345.47;5103783;28;20091;-74
2022/06/09 04:16:12;;;;;;;14.60;9.38;;;;;;;17.24;75.92;93347.00;5104004;28;20338;-75
2022/06/09 04:18:38;;;;;;;15.15;10.45;;;;;;;17.30;77.07;93341.25;5102935;28;20307;-75
2022/06/09 04:21:03;;;;;;;15.60;11.27;;;;;;;17.34;77.86;93340.19;5103672;28;20142;-75
2022/06/09 04:23:29;;;;;;;16.70;12.45;;;;;;;17.36;76.22;93345.97;5103514;28;20046;-75
2022/06/09 04:25:54;;;;;;;15.82;11.38;;;;;;;17.33;76.81;93349.38;5103726;28;20023;-77
2022/06/09 04:28:20;;;;;;;23.00;12.18;;;;;;;17.30;76.69;93347.44;5103577;28;20099;-76
2022/06/09 04:30:46;;;;;;;23.98;12.73;;;;;;;17.32;76.85;93353.25;5103396;28;20030;-75
2022/06/09 04:33:12;;;;;;;19.20;12.48;;;;;;;17.35;76.31;93344.41;5103545;28;20024;-76
2022/06/09 04:35:37;;;;;;;23.40;12.13;;;;;;;17.45;76.74;93351.06;5103388;28;20069;-75
2022/06/09 04:38:03;;;;;;;22.50;13.40;;;;;;;17.49;76.46;93346.47;5103467;28;20042;-75
2022/06/09 04:40:38;;;;;;;32.28;17.05;;;;;;;17.54;76.55;93342.69;5103455;28;20032;-75
2022/06/09 04:43:07;;;;;;;26.67;17.77;;;;;;;17.52;75.89;93340.34;5103229;28;20319;-75
2022/06/09 04:45:32;;;;;;;38.03;22.88;;;;;;;17.51;75.18;93343.44;5103179;28;20307;-75
2022/06/09 04:47:58;;;;;;;42.22;23.42;;;;;;;17.55;75.26;93344.25;5103081;28;20095;-75
2022/06/09 04:50:23;;;;;;;40.25;23.73;;;;;;;17.64;74.53;93342.78;5103573;28;20050;-75
2022/06/09 04:52:50;;;;;;;46.70;24.17;;;;;;;17.69;74.53;93339.00;5103203;28;20020;-75
2022/06/09 04:55:15;;;;;;;39.72;23.88;;;;;;;17.72;73.68;93337.47;5103127;28;20081;-75
2022/06/09 04:57:41;;;;;;;46.15;26.95;;;;;;;17.73;74.47;93347.13;5103184;28;20314;-76
2022/06/09 05:00:09;;;;;;;36.63;22.88;;;;;;;17.74;73.29;93349.41;5103111;28;20307;-76
2022/06/09 05:02:35;;;;;;;38.53;20.77;;;;;;;17.67;73.76;93352.06;5102637;28;20314;-76
2022/06/09 05:05:01;;;;;;;33.80;20.23;;;;;;;17.64;74.08;93342.00;5103012;28;20039;-76
2022/06/09 05:07:28;;;;;;;33.55;19.88;;;;;;;17.63;74.56;93343.94;5103002;28;20223;-76
2022/06/09 05:09:54;;;;;;;28.60;18.17;;;;;;;17.60;73.86;93341.97;5102987;28;20024;-74
2022/06/09 05:12:21;;;;;;;27.27;17.48;;;;;;;17.58;73.02;93344.25;5103027;28;20283;-76
2022/06/09 05:14:46;;;;;;;30.75;18.55;;;;;;;17.53;73.16;93339.22;5102830;28;20036;-76
2022/06/09 05:17:12;;;;;;;45.08;17.65;;;;;;;17.52;73.04;93339.56;5102551;28;20027;-77
2022/06/09 05:19:38;;;;;;;30.30;17.90;;;;;;;17.49;72.82;93337.63;5102698;28;20016;-76
2022/06/09 05:22:03;;;;;;;28.17;19.00;;;;;;;17.41;73.87;93336.78;5102852;28;20417;-76
2022/06/09 05:24:29;;;;;;;32.50;19.58;;;;;;;17.35;74.71;93341.72;5102940;28;20051;-77
2022/06/09 05:26:54;;;;;;;35.08;19.08;;;;;;;17.32;75.14;93339.78;5102823;28;20215;-76
2022/06/09 05:29:20;;;;;;;35.92;18.33;;;;;;;17.35;76.08;93338.25;5104093;28;20098;-75
2022/06/09 05:31:45;;;;;;;29.70;19.33;;;;;;;17.31;76.31;93338.19;5106918;28;20028;-75
2022/06/09 05:34:11;;;;;;;34.85;20.48;;;;;;;17.35;76.78;93340.94;5106807;28;20126;-74
2022/06/09 05:36:37;;;;;;;36.83;20.73;;;;;;;17.35;76.50;93338.25;5106916;28;20034;-75
2022/06/09 05:47:19;;;;;;;32.88;20.58;;;;;;;17.42;75.15;93339.09;5106776;28;20256;-75
2022/06/09 05:49:47;;;;;;;25.60;17.65;;;;;;;17.53;74.88;93346.53;5106585;28;20081;-75
2022/06/09 05:52:13;;;;;;;27.13;17.85;;;;;;;17.58;74.13;93338.88;5106663;28;20023;-76
2022/06/09 05:54:38;;;;;;;28.23;15.63;;;;;;;17.76;73.95;93333.66;5088436;28;20252;-75
2022/06/09 05:57:04;;;;;;;27.63;16.33;;;;;;;17.96;74.22;93345.03;5106526;28;20020;-77
2022/06/09 05:59:29;;;;;;;28.40;17.50;;;;;;;18.17;73.55;93343.66;5106437;28;20068;-77
2022/06/09 06:01:55;;;;;;;25.75;17.42;;;;;;;18.36;72.80;93340.75;5106586;28;20027;-77
2022/06/09 06:04:21;;;;;;;24.02;15.57;;;;;;;18.59;71.60;93337.81;5106532;28;20031;-80
2022/06/09 06:06:46;;;;;;;20.20;13.85;;;;;;;18.84;70.16;93334.50;5106271;28;20069;-77
2022/06/09 06:09:17;;;;;;;20.77;14.05;;;;;;;19.12;68.76;93339.25;5106135;28;20032;-77
2022/06/09 06:11:44;;;;;;;23.50;13.60;;;;;;;19.34;67.45;93323.16;5106147;28;20227;-79
2022/06/09 06:14:10;;;;;;;21.58;12.93;;;;;;;19.55;67.04;93325.13;5106195;28;20028;-77
2022/06/09 06:16:37;;;;;;;24.60;12.77;;;;;;;19.71;66.32;93325.56;5106034;28;20027;-79
2022/06/09 06:19:04;;;;;;;19.50;12.00;;;;;;;19.84;65.55;93321.38;5105814;28;20222;-78
2022/06/09 06:21:30;;;;;;;23.02;13.07;;;;;;;19.94;65.17;93321.75;5106010;28;20222;-79
2022/06/09 06:23:55;;;;;;;19.02;12.38;;;;;;;19.90;63.85;93320.97;5106169;28;20065;-78
2022/06/09 06:26:21;;;;;;;18.60;11.35;;;;;;;19.99;63.63;93322.13;5105933;28;20372;-73
2022/06/09 06:28:47;;;;;;;19.15;10.93;;;;;;;20.06;63.78;93323.31;5105753;28;20039;-74
2022/06/09 06:31:13;;;;;;;15.80;10.88;;;;;;;20.09;62.85;93323.31;5105747;28;20058;-73
2022/06/09 06:33:38;;;;;;;17.77;11.13;;;;;;;20.16;63.04;93317.13;5105866;28;20028;-72
2022/06/09 06:36:04;;;;;;;14.32;10.07;;;;;;;20.28;63.38;93321.38;5105443;28;20253;-74
2022/06/09 06:38:29;;;;;;;16.98;11.15;;;;;;;20.42;62.00;93329.47;5105668;28;20069;-74
2022/06/09 06:40:55;;;;;;;19.45;10.95;;;;;;;20.46;62.39;93318.66;5104390;28;20027;-74
2022/06/09 06:43:22;;;;;;;20.88;10.35;;;;;;;20.60;61.44;93305.91;5105120;28;20032;-75
2022/06/09 06:45:47;;;;;;;17.10;10.57;;;;;;;20.69;60.31;93310.13;5105457;28;20028;-74
2022/06/09 06:48:14;;;;;;;15.68;11.38;;;;;;;20.76;60.92;93313.59;5105247;28;20023;-72
2022/06/09 06:50:40;;;;;;;22.88;13.10;;;;;;;20.72;61.14;93310.13;5105352;28;20019;-72
2022/06/09 06:53:05;;;;;;;17.58;11.02;;;;;;;20.67;59.66;93313.22;5105323;28;20020;-72
2022/06/09 06:55:31;;;;;;;15.25;11.43;;;;;;;20.70;60.30;93317.06;5105162;28;20024;-75
2022/06/09 06:57:56;;;;;;;15.40;9.93;;;;;;;20.75;60.33;93322.13;5105548;28;20039;-75
2022/06/09 07:00:23;;;;;;;15.05;9.52;;;;;;;20.79;59.27;93304.69;5105186;28;20312;-75
2022/06/09 07:02:50;;;;;;;18.75;10.23;;;;;;;20.82;60.12;93313.97;5105168;28;20020;-75
2022/06/09 07:05:18;;;;;;;19.60;10.68;;;;;;;20.75;59.07;93303.91;5104948;28;20030;-75
2022/06/09 07:07:44;;;;;;;13.07;10.25;;;;;;;20.84;59.70;93312.41;5105145;28;20023;-74
2022/06/09 07:10:10;;;;;;;18.15;10.43;;;;;;;20.84;59.94;93307.00;5105094;28;20016;-74
2022/06/09 07:12:37;;;;;;;24.45;10.82;;;;;;;20.79;58.65;93306.63;5105066;28;20039;-74
2022/06/09 07:15:07;;;;;;;13.75;9.68;;;;;;;20.82;59.85;93305.84;5104695;28;20016;-72
2022/06/09 07:17:32;;;;;;;15.80;11.27;;;;;;;20.83;58.28;93304.69;5104699;28;20333;-74
2022/06/09 07:19:58;;;;;;;14.98;10.15;;;;;;;20.77;58.53;93308.94;5104902;28;20016;-73
2022/06/09 07:22:23;;;;;;;15.50;9.52;;;;;;;20.86;58.73;93309.31;5104899;28;20020;-79
2022/06/09 07:24:49;;;;;;;14.82;10.40;;;;;;;21.01;59.06;93310.81;5086704;28;20318;-74
2022/06/09 07:27:14;;;;;;;14.45;9.80;;;;;;;21.06;57.92;93306.16;5104762;28;20020;-74
2022/06/09 07:29:40;;;;;;;18.65;9.73;;;;;;;21.05;58.37;93310.81;5104739;28;20305;-73
2022/06/09 07:32:07;;;;;;;17.73;11.13;;;;;;;21.07;59.60;93305.00;5104630;28;20020;-73
2022/06/09 07:34:34;;;;;;;24.65;11.50;;;;;;;21.10;59.41;93301.50;5104662;28;20095;-73
2022/06/09 07:37:09;;;;;;;20.65;10.55;;;;;;;20.98;60.01;93300.75;5104474;28;20198;-73
2022/06/09 07:39:35;;;;;;;16.20;10.80;;;;;;;20.90;59.71;93304.66;5104532;28;20020;-73
2022/06/09 07:42:01;;;;;;;24.73;12.20;;;;;;;20.74;60.25;93296.19;5104592;28;20058;-72
2022/06/09 07:44:26;;;;;;;19.90;11.38;;;;;;;20.61;60.89;93303.97;5104384;28;20093;-72
2022/06/09 07:46:52;;;;;;;17.02;11.38;;;;;;;20.74;61.32;93291.56;5104258;28;20202;-72
2022/06/09 07:49:17;;;;;;;15.68;11.63;;;;;;;20.94;61.40;93282.97;5104187;28;20046;-72
2022/06/09 07:51:43;;;;;;;16.77;10.23;;;;;;;21.09;60.60;93284.47;5103821;28;20019;-73
2022/06/09 07:54:08;;;;;;;17.08;11.40;;;;;;;21.23;59.44;93281.69;5104232;28;20058;-73
2022/06/09 07:56:34;;;;;;;15.77;10.80;;;;;;;21.37;59.08;93283.56;5104173;28;20036;-72
2022/06/09 07:59:02;;;;;;;14.40;10.25;;;;;;;21.49;59.05;93282.34;5104158;28;20230;-72
2022/06/09 08:01:29;;;;;;;18.80;10.95;;;;;;;21.56;58.46;93284.28;5104225;28;20024;-72
2022/06/09 08:03:55;;;;;;;17.20;11.10;;;;;;;21.66;58.92;93272.59;5104033;28;20035;-74
2022/06/09 08:06:22;;;;;;;20.02;10.48;;;;;;;21.77;58.42;93273.28;5103841;28;20039;-73
2022/06/09 08:08:48;;;;;;;18.48;9.60;;;;;;;21.88;58.39;93270.50;5103651;28;20133;-75
2022/06/09 08:11:13;;;;;;;13.90;9.80;;;;;;;22.02;57.24;93275.03;5103940;28;20024;-73
2022/06/09 08:13:39;;;;;;;14.63;9.65;;;;;;;22.11;56.71;93264.50;5103966;28;20020;-74
2022/06/09 08:16:05;;;;;;;17.50;10.15;;;;;;;22.28;56.92;93272.91;5103675;28;20031;-74
2022/06/09 08:18:31;;;;;;;23.92;9.88;;;;;;;22.45;57.07;93269.28;5103873;28;20079;-74
2022/06/09 08:20:56;;;;;;;14.77;8.70;;;;;;;22.62;56.57;93270.25;5103859;28;20246;-74
2022/06/09 08:23:24;;;;;;;17.00;9.50;;;;;;;22.78;55.02;93256.13;5103654;28;20020;-73
2022/06/09 08:25:54;;;;;;;13.48;9.10;;;;;;;22.89;54.09;93267.63;5103691;28;20317;-73
2022/06/09 08:28:20;;;;;;;11.43;8.98;;;;;;;22.84;53.75;93258.00;5103402;28;20051;-72
2022/06/09 08:30:51;;;;;;;17.90;9.45;;;;;;;22.92;54.47;93261.41;5103661;28;20031;-72
2022/06/09 08:33:18;;;;;;;12.03;9.20;;;;;;;22.97;52.69;93255.50;5103473;28;20028;-72
2022/06/09 08:35:44;;;;;;;13.68;9.73;;;;;;;22.95;52.30;93252.41;5103522;28;20020;-72
2022/06/09 08:38:10;;;;;;;12.82;9.57;;;;;;;22.82;52.69;93251.44;5103370;28;20094;-72
2022/06/09 08:40:41;;;;;;;11.63;8.18;;;;;;;22.69;53.70;93248.44;5103357;28;20031;-72
2022/06/09 08:43:25;;;;;;;22.15;9.32;;;;;;;22.66;54.02;93248.50;5103261;28;20051;-72
2022/06/09 08:45:55;;;;;;;11.90;9.45;;;;;;;22.61;52.07;93257.84;5103253;28;20028;-73
2022/06/09 08:48:23;;;;;;;14.32;8.65;;;;;;;22.51;53.46;93256.81;5103116;28;20219;-72
2022/06/09 08:51:06;;;;;;;23.48;10.35;;;;;;;22.37;53.62;93248.78;5103231;28;20031;-72
2022/06/09 08:53:39;;;;;;;19.52;10.10;;;;;;;22.16;53.95;93255.16;5103016;28;20031;-74
2022/06/09 08:56:16;;;;;;;15.48;9.38;;;;;;;22.02;55.62;93245.19;5102719;28;20038;-73
2022/06/09 08:58:47;;;;;;;13.52;8.75;;;;;;;21.95;56.95;93239.81;5103103;28;20070;-72
2022/06/09 09:01:43;;;;;;;21.95;9.35;;;;;;;21.89;55.20;93253.03;5103026;28;20045;-73
2022/06/09 09:04:18;;;;;;;12.48;8.85;;;;;;;21.81;55.37;93236.03;5102187;28;20087;-72
2022/06/09 09:07:07;;;;;;;16.75;7.85;;;;;;;21.72;56.46;93233.03;5102955;28;20030;-72
2022/06/09 09:09:35;;;;;;;12.18;9.15;;;;;;;21.69;55.53;93225.66;5103077;28;20319;-72
2022/06/09 09:12:07;;;;;;;17.25;7.60;;;;;;;21.72;55.04;93226.84;5103006;28;20222;-73
2022/06/09 09:14:38;;;;;;;21.35;8.38;;;;;;;21.79;56.02;93222.09;5102950;28;20315;-73
2022/06/09 09:17:27;;;;;;;16.20;7.63;;;;;;;21.92;56.66;93219.69;5102793;28;20091;-73
2022/06/09 09:19:59;;;;;;;15.52;8.95;;;;;;;22.05;54.41;93219.97;5102915;28;20031;-73
2022/06/09 09:22:31;;;;;;;13.82;9.50;;;;;;;22.07;55.28;93223.06;5103119;28;20038;-74
2022/06/09 09:25:20;;;;;;;16.38;8.55;;;;;;;22.23;55.78;93212.47;5102827;28;20031;-72
2022/06/09 09:27:58;;;;;;;15.30;8.65;;;;;;;22.50;56.80;93203.66;5102913;28;20048;-72
2022/06/09 09:30:33;;;;;;;14.32;8.73;;;;;;;22.75;55.04;93208.03;5102945;28;20031;-73
2022/06/09 09:32:58;;;;;;;17.38;8.35;;;;;;;22.93;54.58;93211.31;5102692;28;20031;-72
2022/06/09 09:35:40;;;;;;;19.60;8.90;;;;;;;23.17;54.09;93204.03;5102984;28;20062;-72
2022/06/09 09:38:07;;;;;;;12.20;8.20;;;;;;;23.31;54.13;93194.91;5100786;28;20046;-73
2022/06/09 09:40:34;;;;;;;17.40;9.07;;;;;;;23.43;52.58;93199.03;5102488;28;20050;-72
2022/06/09 09:43:07;;;;;;;15.02;8.70;;;;;;;23.42;51.63;93195.53;5102469;28;20143;-72
2022/06/09 09:45:35;;;;;;;30.27;9.63;;;;;;;23.50;52.58;93190.75;5102461;28;20024;-72
2022/06/09 09:48:22;;;;;;;13.38;8.05;;;;;;;23.67;53.22;93182.72;5102610;28;20257;-72
2022/06/09 09:50:55;;;;;;;21.42;8.50;;;;;;;23.69;51.33;93181.16;5091536;28;20403;-72
2022/06/09 09:53:23;;;;;;;12.27;8.35;;;;;;;23.80;50.52;93173.59;5102518;28;20028;-73
2022/06/09 09:56:16;;;;;;;16.35;7.13;;;;;;;23.98;51.12;93183.44;5102476;28;20035;-72
2022/06/09 09:58:47;;;;;;;15.07;7.93;;;;;;;24.13;51.15;93176.56;5102418;28;20024;-72
2022/06/09 10:01:16;;;;;;;11.32;7.22;;;;;;;24.26;49.30;93181.38;5102388;28;20114;-72
2022/06/09 10:09:31;;;;;;;12.13;7.40;;;;;;;24.34;48.92;93171.91;5102180;28;20061;-72
2022/06/09 10:12:06;;;;;;;10.73;6.78;;;;;;;24.37;46.74;93168.34;5102280;28;20099;-72
2022/06/09 10:14:34;;;;;;;12.57;6.80;;;;;;;24.41;46.77;93169.81;5102565;28;20196;-71
2022/06/09 10:17:02;;;;;;;16.25;6.32;;;;;;;24.50;48.17;93163.84;5106184;28;20318;-72
2022/06/09 10:19:30;;;;;;;10.40;5.15;;;;;;;24.54;46.14;93159.09;5106188;28;20016;-72
2022/06/09 10:22:00;;;;;;;18.75;6.20;;;;;;;24.58;45.16;93159.78;5106103;28;20012;-72
2022/06/09 10:24:56;;;;;;;11.43;5.63;;;;;;;24.65;44.82;93158.13;5106015;28;20034;-72
2022/06/09 10:27:30;;;;;;;15.57;5.80;;;;;;;24.65;43.93;93160.84;5105870;28;20028;-72
2022/06/09 10:30:11;;;;;;;7.28;4.40;;;;;;;24.73;46.61;93159.50;5106139;28;20371;-73
2022/06/09 10:32:47;;;;;;;8.07;5.15;;;;;;;24.91;46.64;93156.41;5105893;28;20027;-72
2022/06/09 10:35:12;;;;;;;10.98;5.03;;;;;;;25.01;45.54;93148.03;5105434;28;20127;-74
2022/06/09 10:37:53;;;;;;;13.50;5.90;;;;;;;25.05;44.53;93149.91;5087359;28;20330;-74
2022/06/09 10:40:47;;;;;;;14.07;5.40;;;;;;;25.07;46.10;93139.34;5105702;28;20051;-74
2022/06/09 10:43:35;;;;;;;10.60;5.05;;;;;;;25.13;45.68;93138.41;5105219;28;20044;-74
2022/06/09 10:46:27;;;;;;;8.52;4.80;;;;;;;25.22;45.13;93143.34;5105574;28;20019;-81
2022/06/09 10:55:16;;;;;;;15.52;4.18;;;;;;;25.63;42.58;93131.09;5105358;28;20019;-76
2022/06/09 10:58:15;;;;;;;8.85;4.30;;;;;;;25.82;40.58;93132.16;5104736;28;20323;-75
2022/06/09 11:00:48;;;;;;;9.45;4.25;;;;;;;25.76;39.04;93118.28;5104775;28;20095;-75
2022/06/09 11:03:17;;;;;;;9.68;4.47;;;;;;;25.81;40.03;93131.41;5104308;28;20020;-76
2022/06/09 11:06:05;;;;;;;12.60;4.40;;;;;;;25.97;41.81;93121.69;5105017;28;20031;-75
2022/06/09 11:08:45;;;;;;;17.67;4.50;;;;;;;26.18;42.21;93117.66;5104808;28;20028;-75
2022/06/09 11:11:47;;;;;;;13.77;5.45;;;;;;;26.39;40.81;93110.84;5105210;28;20028;-74
2022/06/09 11:14:43;;;;;;;9.70;5.13;;;;;;;26.50;41.22;93116.00;5105116;28;20024;-74
2022/06/09 11:17:11;;;;;;;7.63;4.93;;;;;;;26.54;40.33;93116.66;5104897;28;20077;-74
2022/06/09 11:19:46;;;;;;;10.38;4.18;;;;;;;26.47;39.17;93111.41;5104673;28;20035;-75
2022/06/09 11:22:24;;;;;;;19.17;4.75;;;;;;;26.34;40.78;93108.66;5104741;28;20024;-73
2022/06/09 11:25:13;;;;;;;12.38;4.93;;;;;;;26.43;39.96;93089.66;5104547;28;20220;-79
2022/06/09 11:27:51;;;;;;;8.52;4.63;;;;;;;26.61;39.80;93106.34;5102562;28;20023;-72
2022/06/09 11:30:30;;;;;;;8.25;3.63;;;;;;;26.79;39.58;93102.34;5103680;28;20087;-71
2022/06/09 11:33:17;;;;;;;7.60;4.43;;;;;;;26.93;38.41;93099.19;5104496;28;20039;-71
2022/06/09 11:35:45;;;;;;;11.02;4.70;;;;;;;26.97;37.48;93094.38;5103251;28;20100;-72
2022/06/09 11:38:49;;;;;;;10.48;4.28;;;;;;;27.11;38.11;93087.72;5103806;28;20025;-70
2022/06/09 11:41:46;;;;;;;9.55;4.35;;;;;;;27.28;36.54;93077.44;5103838;28;20322;-70
2022/06/09 11:44:39;;;;;;;9.02;4.30;;;;;;;27.39;39.01;93074.34;5103418;28;20044;-70
2022/06/09 11:47:09;;;;;;;;;;;;;;;27.45;38.23;93072.59;5103937;28;20043;-73
2022/06/09 11:49:40;;;;;;;8.23;4.18;;;;;;;27.42;38.33;93063.31;5103906;28;19908;-72
2022/06/09 11:52:14;;;;;;;14.10;4.30;;;;;;;27.42;38.75;93062.53;5103026;28;20324;-73
2022/06/09 11:54:55;;;;;;;11.75;3.80;;;;;;;27.31;37.39;93054.66;5102030;28;20273;-73
2022/06/09 11:57:24;;;;;;;6.15;3.65;;;;;;;27.17;40.06;93061.34;5102295;28;20099;-72
2022/06/09 11:59:59;;;;;;;8.48;3.60;;;;;;;27.06;41.30;93065.59;5102216;28;20471;-72